createdAt,value
2022-11-05T00:02:50.467Z,3.80
2022-11-05T00:05:35.893Z,3.58
2022-11-05T00:08:23.337Z,4.20
2022-11-05T00:10:51.169Z,3.72
2022-11-05T00:13:36.639Z,3.47
2022-11-05T00:16:36.259Z,3.90
2022-11-05T00:19:10.299Z,3.25
2022-11-05T00:22:03.996Z,3.35
2022-11-05T00:24:50.564Z,3.60
2022-11-05T00:27:18.289Z,3.28
2022-11-05T00:29:46.035Z,3.95
2022-11-05T00:32:14.124Z,3.22
2022-11-05T00:34:41.806Z,3.25
2022-11-05T00:37:09.506Z,3.00
2022-11-05T00:39:38.881Z,3.28
2022-11-05T00:42:23.993Z,3.58
2022-11-05T00:45:01.730Z,3.13
2022-11-05T00:47:46.847Z,3.35
2022-11-05T00:50:15.001Z,2.88
2022-11-05T00:52:57.986Z,3.63
2022-11-05T00:55:30.262Z,3.33
2022-11-05T00:57:58.778Z,3.20
2022-11-05T01:00:28.678Z,3.35
2022-11-05T01:02:59.789Z,3.28
2022-11-05T01:05:28.871Z,3.35
2022-11-05T01:07:56.793Z,3.17
2022-11-05T01:10:24.883Z,3.55
2022-11-05T01:12:54.324Z,3.53
2022-11-05T01:15:22.751Z,3.95
2022-11-05T01:17:51.867Z,3.38
2022-11-05T01:20:19.779Z,3.92
2022-11-05T01:22:47.677Z,3.47
2022-11-05T01:25:15.825Z,3.55
2022-11-05T01:27:43.816Z,3.78
2022-11-05T01:30:14.046Z,4.00
2022-11-05T01:32:41.969Z,3.75
2022-11-05T01:35:13.298Z,4.20
2022-11-05T01:37:40.999Z,4.03
2022-11-05T01:40:11.575Z,4.30
2022-11-05T01:42:39.200Z,3.67
2022-11-05T01:45:16.863Z,4.85
2022-11-05T01:47:53.213Z,5.00
2022-11-05T01:50:28.191Z,5.32
2022-11-05T01:53:01.656Z,5.55
2022-11-05T01:55:34.945Z,5.57
2022-11-05T01:58:03.737Z,6.40
2022-11-05T02:00:32.819Z,6.50
2022-11-05T02:03:01.174Z,6.53
2022-11-05T02:05:29.503Z,6.45
2022-11-05T02:07:57.734Z,6.65
2022-11-05T02:10:25.639Z,6.93
2022-11-05T02:12:53.365Z,7.15
2022-11-05T02:15:27.891Z,7.57
2022-11-05T02:18:12.145Z,8.18
2022-11-05T02:20:51.977Z,8.85
2022-11-05T02:23:47.727Z,8.88
2022-11-05T02:26:53.900Z,8.20
2022-11-05T02:29:58.500Z,8.55
2022-11-05T02:32:39.164Z,9.43
2022-11-05T02:35:16.991Z,9.75
2022-11-05T02:37:50.607Z,10.90
2022-11-05T02:40:26.627Z,9.30
2022-11-05T02:43:03.600Z,9.10
2022-11-05T02:45:43.229Z,9.38
2022-11-05T02:48:18.882Z,9.27
2022-11-05T02:50:55.203Z,9.13
2022-11-05T02:53:33.646Z,9.27
2022-11-05T02:56:04.642Z,8.60
2022-11-05T02:58:35.027Z,8.95
2022-11-05T03:01:06.765Z,8.45
2022-11-05T03:03:39.461Z,8.23
2022-11-05T03:06:23.626Z,8.00
2022-11-05T03:09:24.318Z,7.60
2022-11-05T03:12:03.798Z,7.72
2022-11-05T03:14:40.458Z,8.55
2022-11-05T03:17:13.645Z,7.15
2022-11-05T03:19:49.147Z,7.32
2022-11-05T03:22:24.832Z,6.88
2022-11-05T03:24:57.411Z,7.03
2022-11-05T03:27:31.076Z,6.60
2022-11-05T03:30:02.758Z,6.50
2022-11-05T03:32:33.748Z,6.43
2022-11-05T03:35:06.304Z,7.22
2022-11-05T03:37:38.375Z,5.93
2022-11-05T03:40:10.297Z,6.13
2022-11-05T03:42:41.820Z,5.10
2022-11-05T03:45:15.555Z,5.10
2022-11-05T03:47:47.246Z,4.15
2022-11-05T03:50:22.547Z,4.60
2022-11-05T03:52:54.285Z,4.22
2022-11-05T03:55:27.453Z,4.25
2022-11-05T03:57:57.070Z,4.30
2022-11-05T04:00:24.902Z,4.47
2022-11-05T04:02:52.940Z,4.32
2022-11-05T04:05:22.278Z,4.25
2022-11-05T04:08:11.475Z,4.20
2022-11-05T04:11:01.435Z,4.50
2022-11-05T04:13:29.405Z,4.25
2022-11-05T04:16:15.341Z,4.30
2022-11-05T04:18:43.755Z,4.22
2022-11-05T04:21:30.381Z,4.05
2022-11-05T04:24:10.491Z,4.45
2022-11-05T04:26:40.100Z,3.75
2022-11-05T04:29:25.685Z,4.00
2022-11-05T04:31:53.585Z,4.15
2022-11-05T04:34:22.578Z,3.72
2022-11-05T04:36:53.090Z,3.28
2022-11-05T04:39:21.900Z,3.25
2022-11-05T04:41:49.573Z,3.00
2022-11-05T04:44:17.695Z,3.42
2022-11-05T04:46:45.501Z,2.63
2022-11-05T04:49:13.462Z,2.97
2022-11-05T04:51:41.060Z,2.90
2022-11-05T04:54:10.072Z,2.60
2022-11-05T04:56:38.015Z,3.10
2022-11-05T04:59:05.669Z,3.08
2022-11-05T05:01:33.801Z,3.13
2022-11-05T05:04:01.580Z,2.88
2022-11-05T05:06:29.196Z,3.13
2022-11-05T05:08:56.827Z,2.60
2022-11-05T05:11:26.072Z,3.10
2022-11-05T05:13:53.668Z,2.58
2022-11-05T05:16:23.345Z,2.38
2022-11-05T05:18:51.668Z,2.35
2022-11-05T05:21:38.587Z,2.75
2022-11-05T05:24:08.759Z,2.53
2022-11-05T05:26:39.389Z,2.47
2022-11-05T05:29:07.893Z,2.55
2022-11-05T05:31:35.863Z,2.45
2022-11-05T05:34:03.818Z,2.72
2022-11-05T05:36:31.885Z,3.00
2022-11-05T05:38:59.936Z,3.47
2022-11-05T05:41:27.625Z,3.03
2022-11-05T05:43:56.610Z,3.65
2022-11-05T05:46:24.275Z,3.53
2022-11-05T05:48:53.110Z,3.28
2022-11-05T05:51:21.112Z,3.70
2022-11-05T05:53:48.736Z,4.22
2022-11-05T05:56:19.235Z,4.63
2022-11-05T05:58:47.637Z,5.00
2022-11-05T06:01:19.721Z,4.43
2022-11-05T06:03:48.250Z,4.90
2022-11-05T06:06:19.811Z,4.55
2022-11-05T06:08:47.958Z,4.68
2022-11-05T06:11:15.643Z,5.60
2022-11-05T06:13:43.340Z,4.90
2022-11-05T06:16:11.535Z,5.00
2022-11-05T06:18:40.735Z,5.00
2022-11-05T06:21:10.733Z,5.05
2022-11-05T06:23:39.941Z,4.80
2022-11-05T06:26:10.043Z,4.22
2022-11-05T06:28:37.785Z,4.72
2022-11-05T06:31:06.281Z,4.03
2022-11-05T06:33:34.621Z,4.05
2022-11-05T06:36:06.500Z,4.10
2022-11-05T06:38:35.434Z,3.97
2022-11-05T06:41:09.002Z,4.05
2022-11-05T06:43:38.978Z,4.97
2022-11-05T06:46:07.205Z,5.35
2022-11-05T06:48:35.928Z,4.97
2022-11-05T06:51:05.708Z,4.72
2022-11-05T06:53:33.484Z,4.95
2022-11-05T06:56:03.868Z,5.25
2022-11-05T06:58:32.023Z,5.00
2022-11-05T07:01:04.282Z,5.70
2022-11-05T07:03:32.356Z,5.72
2022-11-05T07:06:01.128Z,5.82
2022-11-05T07:08:32.548Z,5.95
2022-11-05T07:11:00.744Z,6.53
2022-11-05T07:13:28.452Z,6.78
2022-11-05T07:15:56.526Z,25.38
2022-11-05T07:18:24.557Z,8.00
2022-11-05T07:20:52.264Z,8.55
2022-11-05T07:23:20.012Z,7.53
2022-11-05T07:25:49.088Z,8.07
2022-11-05T07:28:17.024Z,7.82
2022-11-05T07:30:44.714Z,8.57
2022-11-05T07:33:13.208Z,7.45
2022-11-05T07:35:41.635Z,7.57
2022-11-05T07:38:09.696Z,7.32
2022-11-05T07:40:37.444Z,7.47
2022-11-05T07:43:06.434Z,7.13
2022-11-05T07:45:34.062Z,7.97
2022-11-05T07:48:02.965Z,6.43
2022-11-05T07:50:32.872Z,7.18
2022-11-05T07:53:02.031Z,6.95
2022-11-05T07:55:30.117Z,6.72
2022-11-05T07:57:57.873Z,6.78
2022-11-05T08:00:28.067Z,7.15
2022-11-05T08:03:07.125Z,7.22
2022-11-05T08:05:37.875Z,7.40
2022-11-05T08:08:11.052Z,7.32
2022-11-05T08:10:39.503Z,29.58
2022-11-05T08:13:33.102Z,12.85
2022-11-05T08:16:02.443Z,7.05
2022-11-05T08:18:32.272Z,6.32
2022-11-05T08:21:01.432Z,5.93
2022-11-05T08:23:30.213Z,5.65
2022-11-05T08:25:58.614Z,5.82
2022-11-05T08:28:27.489Z,5.57
2022-11-05T08:30:57.182Z,5.30
2022-11-05T08:33:27.429Z,5.25
2022-11-05T08:35:55.953Z,5.63
2022-11-05T08:38:23.638Z,5.57
2022-11-05T08:40:57.413Z,5.18
2022-11-05T08:43:25.478Z,5.50
2022-11-05T08:45:54.906Z,4.97
2022-11-05T08:48:22.519Z,5.22
2022-11-05T08:50:51.653Z,5.60
2022-11-05T08:53:19.622Z,4.85
2022-11-05T08:55:49.983Z,5.07
2022-11-05T08:58:17.897Z,4.47
2022-11-05T09:00:46.974Z,4.63
2022-11-05T09:03:16.303Z,5.13
2022-11-05T09:05:44.656Z,4.97
2022-11-05T09:08:16.085Z,4.38
2022-11-05T09:10:44.692Z,5.22
2022-11-05T09:13:18.292Z,4.65
2022-11-05T09:15:47.161Z,4.57
2022-11-05T09:18:15.974Z,4.85
2022-11-05T09:20:44.144Z,4.50
2022-11-05T09:23:15.096Z,5.03
2022-11-05T09:25:42.947Z,5.03
2022-11-05T09:28:16.521Z,11.57
2022-11-05T09:30:47.385Z,16.85
2022-11-05T09:33:15.662Z,5.13
2022-11-05T09:35:43.847Z,4.63
2022-11-05T09:38:13.587Z,4.70
2022-11-05T09:40:45.679Z,4.63
2022-11-05T09:43:20.213Z,4.72
2022-11-05T09:45:50.579Z,4.20
2022-11-05T09:48:21.508Z,4.13
2022-11-05T09:50:51.136Z,4.68
2022-11-05T09:53:23.546Z,4.40
2022-11-05T09:55:54.520Z,4.22
2022-11-05T09:58:31.981Z,4.22
2022-11-05T10:01:00.214Z,4.03
2022-11-05T10:03:30.969Z,3.53
2022-11-05T10:06:08.241Z,4.00
2022-11-05T10:08:42.570Z,4.00
2022-11-05T10:11:16.755Z,4.00
2022-11-05T10:13:48.695Z,3.90
2022-11-05T10:16:24.451Z,3.47
2022-11-05T10:18:58.153Z,5.50
2022-11-05T10:21:51.386Z,9.77
2022-11-05T10:24:17.274Z,4.55
2022-11-05T10:26:48.956Z,4.53
2022-11-05T10:29:23.764Z,4.13
2022-11-05T10:31:54.427Z,3.80
2022-11-05T10:34:24.884Z,3.28
2022-11-05T10:36:54.179Z,3.08
2022-11-05T10:39:24.295Z,2.95
2022-11-05T10:42:17.066Z,2.90
2022-11-05T10:44:51.446Z,3.15
2022-11-05T10:47:45.609Z,3.03
2022-11-05T10:50:17.736Z,3.00
2022-11-05T10:52:56.449Z,2.55
2022-11-05T10:55:28.510Z,2.60
2022-11-05T10:58:07.514Z,2.42
2022-11-05T11:00:35.367Z,2.30
2022-11-05T11:03:05.596Z,2.42
2022-11-05T11:05:36.040Z,2.72
2022-11-05T11:08:20.421Z,2.25
2022-11-05T11:10:52.735Z,2.10
2022-11-05T11:13:22.721Z,2.33
2022-11-05T11:15:51.014Z,2.25
2022-11-05T11:18:26.852Z,2.08
2022-11-05T11:20:54.546Z,2.20
2022-11-05T11:23:22.402Z,2.28
2022-11-05T11:25:54.898Z,2.33
2022-11-05T11:28:25.385Z,2.10
2022-11-05T11:30:57.361Z,2.28
2022-11-05T11:33:28.475Z,2.28
2022-11-05T11:35:57.811Z,2.47
2022-11-05T11:38:26.570Z,2.00
2022-11-05T11:41:06.631Z,1.95
2022-11-05T11:43:38.274Z,7.10
2022-11-05T11:46:15.230Z,5.22
2022-11-05T11:48:47.378Z,2.47
2022-11-05T11:51:21.009Z,1.75
2022-11-05T11:53:50.238Z,2.28
2022-11-05T11:56:21.126Z,2.00
2022-11-05T11:58:51.054Z,1.90
2022-11-05T12:01:35.508Z,2.15
2022-11-05T12:04:18.955Z,2.90
2022-11-05T12:06:52.817Z,2.15
2022-11-05T12:09:30.501Z,2.50
2022-11-05T12:12:06.358Z,2.13
2022-11-05T12:14:46.048Z,2.63
2022-11-05T12:17:30.767Z,2.20
2022-11-05T12:20:23.192Z,1.80
2022-11-05T12:23:08.477Z,1.67
2022-11-05T12:25:43.793Z,1.90
2022-11-05T12:28:26.454Z,1.90
2022-11-05T12:31:01.261Z,1.95
2022-11-05T12:33:42.961Z,1.88
2022-11-05T12:36:21.995Z,2.03
2022-11-05T12:39:19.925Z,1.60
2022-11-05T12:41:55.918Z,1.88
2022-11-05T12:44:38.584Z,1.77
2022-11-05T12:47:21.781Z,1.60
2022-11-05T12:50:02.898Z,2.00
2022-11-05T12:52:51.945Z,2.03
2022-11-05T12:55:22.935Z,2.40
2022-11-05T12:57:54.612Z,2.03
2022-11-05T13:00:25.713Z,1.58
2022-11-05T13:02:57.489Z,1.48
2022-11-05T13:05:35.138Z,1.98
2022-11-05T13:08:10.390Z,1.70
2022-11-05T13:10:42.396Z,1.85
2022-11-05T13:13:15.645Z,1.83
2022-11-05T13:15:51.761Z,1.85
2022-11-05T13:18:24.856Z,2.15
2022-11-05T13:20:54.981Z,1.70
2022-11-05T13:23:30.584Z,2.05
2022-11-05T13:26:04.336Z,2.03
2022-11-05T13:28:39.467Z,2.05
2022-11-05T13:31:14.990Z,1.95
2022-11-05T13:33:45.357Z,2.47
2022-11-05T13:36:34.083Z,2.67
2022-11-05T13:39:15.112Z,3.10
2022-11-05T13:42:07.180Z,2.92
2022-11-05T13:45:07.665Z,3.40
2022-11-05T13:47:58.068Z,3.65
2022-11-05T13:50:50.216Z,3.47
2022-11-05T13:53:51.624Z,3.20
2022-11-05T13:56:32.456Z,3.97
2022-11-05T13:59:18.847Z,3.80
2022-11-05T14:01:51.449Z,3.65
2022-11-05T14:04:29.792Z,3.75
2022-11-05T14:07:08.611Z,3.42
2022-11-05T14:09:37.924Z,4.60
2022-11-05T14:12:08.427Z,4.80
2022-11-05T14:14:44.694Z,4.40
2022-11-05T14:17:17.740Z,4.82
2022-11-05T14:20:09.697Z,4.70
2022-11-05T14:22:40.386Z,4.72
2022-11-05T14:26:00.695Z,6.00
2022-11-05T14:28:39.978Z,6.45
2022-11-05T14:31:41.024Z,5.95
2022-11-05T14:34:25.221Z,5.97
2022-11-05T14:37:26.317Z,6.45
2022-11-05T14:39:55.528Z,7.13
2022-11-05T14:42:29.486Z,6.50
2022-11-05T14:45:01.884Z,6.47
2022-11-05T14:47:32.771Z,6.60
2022-11-05T14:50:04.485Z,6.63
2022-11-05T14:52:34.071Z,6.50
2022-11-05T14:55:01.891Z,6.40
2022-11-05T14:58:17.372Z,6.47
2022-11-05T15:00:50.298Z,7.00
2022-11-05T15:03:41.155Z,6.97
2022-11-05T15:06:24.858Z,6.55
2022-11-05T15:09:06.073Z,6.70
2022-11-05T15:11:38.523Z,7.53
2022-11-05T15:14:13.941Z,7.03
2022-11-05T15:16:44.150Z,6.82
2022-11-05T15:19:21.340Z,6.63
2022-11-05T15:21:50.290Z,7.50
2022-11-05T15:24:21.169Z,7.03
2022-11-05T15:26:55.357Z,7.00
2022-11-05T15:29:27.400Z,7.97
2022-11-05T15:31:55.762Z,7.20
2022-11-05T15:34:25.914Z,7.28
2022-11-05T15:36:56.017Z,6.32
2022-11-05T15:39:31.614Z,6.70
2022-11-05T15:42:02.159Z,7.63
2022-11-05T15:44:32.008Z,6.85
2022-11-05T15:47:13.992Z,7.50
2022-11-05T15:49:43.376Z,8.05
2022-11-05T15:52:13.876Z,7.82
2022-11-05T15:54:43.429Z,7.45
2022-11-05T15:57:23.556Z,9.13
2022-11-05T15:59:51.484Z,9.45
2022-11-05T16:02:32.819Z,10.00
2022-11-05T16:05:06.588Z,8.38
2022-11-05T16:07:34.863Z,8.27
2022-11-05T16:10:10.036Z,9.75
2022-11-05T16:12:40.496Z,8.25
2022-11-05T16:15:24.021Z,9.25
2022-11-05T16:17:56.357Z,9.20
2022-11-05T16:20:30.805Z,8.50
2022-11-05T16:23:00.546Z,9.10
2022-11-05T16:25:38.370Z,9.50
2022-11-05T16:28:19.795Z,7.60
2022-11-05T16:30:56.958Z,7.03
2022-11-05T16:33:26.239Z,6.60
2022-11-05T16:35:54.382Z,7.22
2022-11-05T16:38:22.865Z,6.78
2022-11-05T16:40:52.049Z,7.13
2022-11-05T16:43:22.144Z,6.63
2022-11-05T16:45:50.673Z,7.20
2022-11-05T16:48:18.385Z,6.90
2022-11-05T16:50:47.140Z,7.35
2022-11-05T16:53:15.238Z,7.00
2022-11-05T16:55:44.819Z,7.25
2022-11-05T16:58:20.476Z,7.70
2022-11-05T17:00:49.364Z,7.10
2022-11-05T17:03:17.232Z,7.20
2022-11-05T17:05:45.454Z,8.40
2022-11-05T17:08:13.756Z,7.50
2022-11-05T17:10:41.760Z,7.30
2022-11-05T17:13:12.522Z,7.05
2022-11-05T17:15:44.733Z,8.30
2022-11-05T17:18:18.108Z,8.50
2022-11-05T17:20:49.018Z,7.45
2022-11-05T17:23:18.720Z,7.28
2022-11-05T17:25:49.118Z,7.57
2022-11-05T17:28:17.569Z,7.53
2022-11-05T17:30:52.385Z,6.70
2022-11-05T17:33:22.448Z,6.70
2022-11-05T17:35:50.805Z,6.55
2022-11-05T17:38:18.505Z,6.13
2022-11-05T17:40:46.405Z,6.05
2022-11-05T17:43:15.441Z,6.47
2022-11-05T17:45:46.661Z,6.43
2022-11-05T17:48:14.885Z,6.53
2022-11-05T17:50:43.685Z,6.57
2022-11-05T17:53:12.379Z,6.82
2022-11-05T17:55:41.544Z,6.85
2022-11-05T17:58:09.670Z,6.60
2022-11-05T18:00:38.763Z,6.85
2022-11-05T18:03:07.760Z,6.45
2022-11-05T18:05:35.856Z,7.00
2022-11-05T18:08:03.972Z,7.07
2022-11-05T18:10:32.066Z,6.80
2022-11-05T18:13:00.219Z,6.00
2022-11-05T18:15:27.873Z,6.63
2022-11-05T18:17:55.513Z,6.80
2022-11-05T18:20:25.118Z,6.95
2022-11-05T18:22:53.257Z,7.35
2022-11-05T18:25:21.002Z,7.05
2022-11-05T18:27:48.687Z,6.75
2022-11-05T18:30:16.403Z,7.30
2022-11-05T18:32:44.499Z,8.10
2022-11-05T18:35:13.465Z,8.63
2022-11-05T18:37:42.624Z,8.43
2022-11-05T18:40:11.216Z,8.73
2022-11-05T18:42:39.181Z,10.60
2022-11-05T18:45:08.016Z,10.50
2022-11-05T18:47:35.945Z,10.18
2022-11-05T18:50:05.371Z,10.77
2022-11-05T18:52:33.762Z,10.30
2022-11-05T18:55:02.989Z,10.27
2022-11-05T18:57:31.048Z,11.00
2022-11-05T18:59:58.873Z,11.73
2022-11-05T19:02:26.954Z,10.85
2022-11-05T19:05:26.692Z,10.93
2022-11-05T19:07:43.175Z,12.93
2022-11-05T19:10:12.501Z,12.40
2022-11-05T19:12:40.455Z,11.25
2022-11-05T19:15:09.395Z,12.75
2022-11-05T19:17:37.647Z,12.55
2022-11-05T19:20:07.027Z,13.02
2022-11-05T19:22:34.796Z,12.15
2022-11-05T19:25:03.757Z,11.55
2022-11-05T19:27:32.890Z,11.50
2022-11-05T19:30:01.366Z,11.23
2022-11-05T19:32:29.126Z,11.93
2022-11-05T19:34:57.040Z,11.10
2022-11-05T19:37:24.743Z,12.05
2022-11-05T19:39:52.497Z,11.73
2022-11-05T19:42:20.318Z,11.95
2022-11-05T19:44:49.405Z,12.40
2022-11-05T19:47:17.150Z,11.93
2022-11-05T19:49:45.018Z,12.82
2022-11-05T19:52:12.774Z,11.73
2022-11-05T19:54:40.828Z,12.23
2022-11-05T19:57:08.556Z,12.02
2022-11-05T19:59:36.273Z,12.05
2022-11-05T20:02:06.057Z,14.82
2022-11-05T20:04:34.609Z,14.00
2022-11-05T20:07:02.405Z,12.52
2022-11-05T20:09:30.131Z,12.00
2022-11-05T20:11:57.941Z,12.15
2022-11-05T20:14:26.641Z,12.25
2022-11-05T20:16:54.761Z,12.65
2022-11-05T20:19:24.577Z,12.85
2022-11-05T20:21:52.852Z,12.38
2022-11-05T20:24:25.350Z,13.30
2022-11-05T20:26:54.058Z,12.52
2022-11-05T20:29:22.977Z,11.85
2022-11-05T20:31:51.133Z,16.33
2022-11-05T20:34:18.926Z,14.95
2022-11-05T20:36:48.103Z,12.35
2022-11-05T20:39:16.327Z,12.23
2022-11-05T20:41:44.151Z,12.98
2022-11-05T20:44:12.006Z,12.73
2022-11-05T20:46:39.773Z,13.52
2022-11-05T20:49:07.481Z,12.63
2022-11-05T20:51:35.197Z,12.70
2022-11-05T20:54:05.318Z,12.48
2022-11-05T20:56:35.760Z,11.68
2022-11-05T20:59:04.051Z,11.32
2022-11-05T21:01:33.982Z,11.23
2022-11-05T21:04:02.834Z,11.25
2022-11-05T21:06:30.982Z,12.32
2022-11-05T21:08:58.926Z,11.05
2022-11-05T21:11:28.094Z,10.75
2022-11-05T21:13:55.838Z,10.95
2022-11-05T21:16:23.574Z,12.13
2022-11-05T21:18:51.509Z,12.05
2022-11-05T21:21:21.457Z,11.52
2022-11-05T21:23:49.283Z,11.68
2022-11-05T21:26:18.543Z,10.82
2022-11-05T21:28:47.619Z,10.38
2022-11-05T21:31:15.394Z,10.20
2022-11-05T21:33:43.153Z,9.27
2022-11-05T21:36:12.688Z,9.38
2022-11-05T21:38:41.417Z,9.60
2022-11-05T21:41:10.865Z,10.10
2022-11-05T21:43:40.476Z,9.48
2022-11-05T21:46:13.000Z,9.35
2022-11-05T21:48:40.738Z,9.52
2022-11-05T21:51:27.804Z,8.88
2022-11-05T21:54:13.338Z,9.30
2022-11-05T21:56:55.187Z,9.25
2022-11-05T21:59:42.807Z,9.23
2022-11-05T22:02:14.353Z,8.73
2022-11-05T22:04:44.575Z,8.68
2022-11-05T22:07:14.201Z,9.45
2022-11-05T22:09:41.970Z,8.95
2022-11-05T22:12:11.763Z,8.82
2022-11-05T22:14:39.852Z,8.68
2022-11-05T22:17:08.529Z,8.73
2022-11-05T22:19:37.709Z,8.18
2022-11-05T22:22:06.549Z,9.02
2022-11-05T22:24:35.603Z,8.52
2022-11-05T22:27:05.607Z,9.38
2022-11-05T22:29:33.276Z,7.85
2022-11-05T22:32:01.030Z,8.10
2022-11-05T22:34:28.735Z,8.52
2022-11-05T22:36:57.775Z,8.73
2022-11-05T22:39:25.925Z,7.88
2022-11-05T22:41:54.970Z,8.00
2022-11-05T22:44:23.028Z,7.90
2022-11-05T22:46:51.089Z,7.40
2022-11-05T22:49:19.301Z,8.35
2022-11-05T22:51:47.161Z,7.60
2022-11-05T22:54:16.629Z,8.63
2022-11-05T22:56:44.733Z,8.20
2022-11-05T22:59:14.865Z,8.57
2022-11-05T23:01:43.199Z,8.45
2022-11-05T23:04:11.369Z,8.18
2022-11-05T23:06:56.461Z,8.90
2022-11-05T23:09:45.276Z,9.05
2022-11-05T23:12:22.668Z,9.15
2022-11-05T23:14:50.690Z,8.13
2022-11-05T23:17:35.905Z,8.95
2022-11-05T23:20:24.333Z,8.63
2022-11-05T23:23:09.804Z,9.60
2022-11-05T23:25:38.751Z,10.25
2022-11-05T23:28:10.248Z,21.00
2022-11-05T23:31:00.049Z,28.17
2022-11-05T23:33:27.765Z,11.73
2022-11-05T23:36:13.586Z,10.57
2022-11-05T23:38:41.245Z,8.90
2022-11-05T23:41:27.892Z,8.88
2022-11-05T23:44:12.983Z,8.38
2022-11-05T23:46:58.412Z,8.65
2022-11-05T23:49:26.825Z,9.30
2022-11-05T23:51:54.489Z,9.50
2022-11-05T23:54:22.899Z,9.23
2022-11-05T23:56:52.222Z,10.10
2022-11-05T23:59:20.107Z,10.18
